Time;durP1;ratioP1;P1;durP2;ratioP2;P2;SDS_P1;SDS_P2;PMS_P1;PMS_P2;Temp;Humidity;BMP_temperature;BMP_pressure;BME280_temperature;BME280_humidity;BME280_pressure;Samples;Min_cycle;Max_cycle;Signal;HPM_P1;HPM_P2
2023/10/14 00:14:26;;;;;;;1.10;0.70;;;;;;;;;;7399204;19;20401;-91
2023/10/14 00:16:54;;;;;;;0.50;0.50;;;;;;;;;;7402462;19;20868;-93
2023/10/14 00:19:27;;;;;;;0.50;0.50;;;;;;;;;;7387513;19;21024;-92
2023/10/14 00:21:55;;;;;;;0.70;0.70;;;;;;;;;;7396808;19;20427;-90
2023/10/14 00:24:33;;;;;;;0.63;0.63;;;;;;;;;;7393012;19;20968;-93
2023/10/14 00:27:04;;;;;;;1.30;0.60;;;;;;;;;;7390463;19;20989;-92
2023/10/14 00:29:39;;;;;;;0.95;0.95;;;;;;;;;;7397327;19;20396;-94
2023/10/14 00:32:40;;;;;;;0.70;0.70;;;;;;;;;;7398978;19;20372;-94
2023/10/14 00:35:41;;;;;;;0.83;0.83;;;;;;;;;;7401510;19;20344;-93
2023/10/14 00:38:17;;;;;;;0.50;0.50;;;;;;;;;;7392016;19;20369;-94
2023/10/14 00:40:46;;;;;;;0.63;0.63;;;;;;;;;;7392847;19;20900;-93
2023/10/14 00:43:13;;;;;;;0.50;0.50;;;;;;;;;;7387683;19;20344;-93
2023/10/14 00:45:43;;;;;;;1.10;0.98;;;;;;;;;;7387611;19;20337;-88
2023/10/14 00:48:13;;;;;;;0.38;0.38;;;;;;;;;;7413786;19;20356;-92
2023/10/14 00:50:41;;;;;;;0.52;0.52;;;;;;;;;;7411990;19;20433;-90
2023/10/14 00:53:08;;;;;;;1.50;1.00;;;;;;;;;;7392332;19;20761;-89
2023/10/14 00:56:11;;;;;;;0.75;0.75;;;;;;;;;;7396935;19;20408;-92
2023/10/14 00:58:28;;;;;;;0.90;0.90;;;;;;;;;;7399839;19;20377;-93
2023/10/14 01:00:58;;;;;;;0.90;0.90;;;;;;;;;;7395264;19;20385;-91
2023/10/14 01:03:25;;;;;;;1.00;0.65;;;;;;;;;;7387985;19;20750;-91
2023/10/14 01:05:56;;;;;;;0.45;0.45;;;;;;;;;;7384751;19;20377;-92
2023/10/14 01:08:25;;;;;;;1.00;0.50;;;;;;;;;;7380166;19;20360;-91
2023/10/14 01:10:52;;;;;;;0.70;0.70;;;;;;;;;;7384950;19;20356;-92
2023/10/14 01:13:23;;;;;;;1.30;0.88;;;;;;;;;;7394421;19;20357;-93
2023/10/14 01:16:03;;;;;;;0.30;0.30;;;;;;;;;;7395161;19;20360;-89
2023/10/14 01:18:34;;;;;;;1.17;1.00;;;;;;;;;;7377209;19;20360;-91
2023/10/14 01:21:02;;;;;;;0.70;0.70;;;;;;;;;;7384777;19;20754;-92
2023/10/14 01:23:28;;;;;;;1.15;1.08;;;;;;;;;;7386841;19;20345;-93
2023/10/14 01:26:09;;;;;;;1.00;0.90;;;;;;;;;;7387982;19;20938;-91
2023/10/14 01:28:43;;;;;;;0.82;0.82;;;;;;;;;;7386512;19;20976;-91
2023/10/14 01:33:58;;;;;;;0.90;0.90;;;;;;;;;;7386170;19;20424;-91
2023/10/14 01:36:32;;;;;;;0.50;0.50;;;;;;;;;;7389490;19;20347;-91
2023/10/14 01:39:01;;;;;;;0.40;0.40;;;;;;;;;;7385655;19;20980;-89
2023/10/14 01:41:30;;;;;;;0.60;0.60;;;;;;;;;;7381874;19;20404;-90
2023/10/14 01:44:03;;;;;;;0.73;0.70;;;;;;;;;;7382868;19;20345;-90
2023/10/14 01:46:30;;;;;;;0.60;0.60;;;;;;;;;;7382636;19;20349;-89
2023/10/14 01:49:03;;;;;;;0.68;0.68;;;;;;;;;;7387417;19;20345;-87
2023/10/14 01:51:33;;;;;;;0.47;0.47;;;;;;;;;;7388672;19;20374;-90
2023/10/14 01:54:00;;;;;;;0.63;0.60;;;;;;;;;;7390012;19;20360;-91
2023/10/14 01:56:27;;;;;;;0.40;0.40;;;;;;;;;;7390401;19;20885;-92
2023/10/14 01:58:57;;;;;;;0.50;0.50;;;;;;;;;;7399222;19;20423;-91
2023/10/14 02:04:15;;;;;;;0.68;0.68;;;;;;;;;;7400685;19;20377;-89
2023/10/14 02:06:46;;;;;;;0.50;0.50;;;;;;;;;;7399041;19;21041;-90
2023/10/14 02:09:17;;;;;;;0.80;0.80;;;;;;;;;;7399825;19;20378;-89
2023/10/14 02:11:47;;;;;;;0.50;0.50;;;;;;;;;;7397703;19;20352;-91
2023/10/14 02:14:18;;;;;;;0.75;0.75;;;;;;;;;;7395990;19;20352;-91
2023/10/14 02:16:49;;;;;;;0.50;0.50;;;;;;;;;;7395524;19;20977;-91
2023/10/14 02:19:17;;;;;;;0.45;0.40;;;;;;;;;;7396860;19;20419;-93
2023/10/14 02:21:57;;;;;;;0.80;0.80;;;;;;;;;;7398339;19;20368;-90
2023/10/14 02:24:27;;;;;;;0.40;0.40;;;;;;;;;;7397582;19;20341;-91
2023/10/14 02:26:57;;;;;;;0.60;0.60;;;;;;;;;;7396308;19;20333;-93
2023/10/14 02:29:24;;;;;;;0.80;0.80;;;;;;;;;;7397529;19;20356;-92
2023/10/14 02:31:51;;;;;;;0.40;0.40;;;;;;;;;;7396163;19;20383;-93
2023/10/14 02:34:18;;;;;;;0.50;0.50;;;;;;;;;;7394928;19;20374;-91
2023/10/14 02:36:49;;;;;;;0.40;0.40;;;;;;;;;;7392919;19;20356;-91
2023/10/14 02:39:22;;;;;;;0.50;0.50;;;;;;;;;;7401214;19;20423;-90
2023/10/14 02:42:07;;;;;;;0.50;0.40;;;;;;;;;;7405806;19;20381;-90
2023/10/14 02:44:52;;;;;;;0.40;0.40;;;;;;;;;;7400932;19;20734;-89
2023/10/14 02:47:19;;;;;;;1.15;0.60;;;;;;;;;;7398730;19;20355;-89
2023/10/14 02:50:05;;;;;;;0.40;0.40;;;;;;;;;;7401671;19;20361;-89
2023/10/14 02:52:38;;;;;;;0.60;0.60;;;;;;;;;;7399855;19;20345;-89
2023/10/14 02:55:22;;;;;;;0.60;0.60;;;;;;;;;;7401814;19;20356;-91
2023/10/14 02:57:50;;;;;;;0.30;0.30;;;;;;;;;;7393537;19;20344;-91
2023/10/14 03:00:30;;;;;;;0.40;0.40;;;;;;;;;;7389991;19;20348;-92
2023/10/14 03:03:12;;;;;;;0.80;0.80;;;;;;;;;;7390602;19;20345;-92
2023/10/14 03:05:51;;;;;;;0.73;0.70;;;;;;;;;;7402823;19;20682;-89
2023/10/14 03:08:39;;;;;;;0.70;0.70;;;;;;;;;;7397864;19;20345;-88
2023/10/14 03:11:16;;;;;;;1.20;0.50;;;;;;;;;;7399972;19;20364;-91
2023/10/14 03:13:44;;;;;;;0.70;0.70;;;;;;;;;;7403732;19;20364;-87
2023/10/14 03:16:16;;;;;;;0.50;0.50;;;;;;;;;;7426136;19;20357;-88
2023/10/14 03:18:44;;;;;;;0.50;0.50;;;;;;;;;;7409707;19;20364;-91
2023/10/14 03:21:23;;;;;;;0.65;0.65;;;;;;;;;;7393977;19;20417;-90
2023/10/14 03:23:50;;;;;;;0.75;0.75;;;;;;;;;;7397318;19;20380;-90
2023/10/14 03:26:20;;;;;;;0.30;0.30;;;;;;;;;;7402297;19;20373;-89
2023/10/14 03:28:50;;;;;;;0.55;0.55;;;;;;;;;;7398854;19;20364;-90
2023/10/14 03:31:19;;;;;;;0.80;0.80;;;;;;;;;;7397193;19;20373;-90
2023/10/14 03:33:46;;;;;;;2.60;0.95;;;;;;;;;;7400461;19;20957;-89
2023/10/14 03:36:16;;;;;;;0.43;0.43;;;;;;;;;;7402474;19;20351;-88
2023/10/14 03:38:47;;;;;;;0.45;0.45;;;;;;;;;;7393375;19;20337;-90
2023/10/14 03:41:18;;;;;;;0.60;0.60;;;;;;;;;;7392701;19;20364;-88
2023/10/14 03:46:33;;;;;;;0.70;0.70;;;;;;;;;;7398319;19;20345;-90
2023/10/14 03:49:20;;;;;;;0.45;0.45;;;;;;;;;;7394665;19;20348;-88
2023/10/14 03:51:51;;;;;;;0.60;0.60;;;;;;;;;;7385122;19;20333;-90
2023/10/14 03:54:24;;;;;;;0.68;0.68;;;;;;;;;;7394192;19;20340;-88
2023/10/14 03:56:51;;;;;;;0.60;0.60;;;;;;;;;;7387188;19;20644;-87
2023/10/14 03:59:25;;;;;;;0.73;0.73;;;;;;;;;;7385378;19;20333;-89
2023/10/14 04:01:57;;;;;;;0.68;0.68;;;;;;;;;;7389817;19;20356;-89
2023/10/14 04:04:27;;;;;;;0.70;0.50;;;;;;;;;;7393002;19;20364;-89
2023/10/14 04:09:52;;;;;;;0.60;0.60;;;;;;;;;;7390056;19;20340;-90
2023/10/14 04:12:37;;;;;;;0.70;0.70;;;;;;;;;;7386024;19;20337;-89
2023/10/14 04:17:48;;;;;;;0.47;0.47;;;;;;;;;;7422573;19;20337;-86
2023/10/14 04:20:21;;;;;;;1.40;0.90;;;;;;;;;;7426353;19;20364;-86
2023/10/14 04:22:51;;;;;;;0.50;0.50;;;;;;;;;;7424077;19;20369;-86
2023/10/14 04:25:39;;;;;;;0.50;0.50;;;;;;;;;;7419987;19;20356;-89
2023/10/14 04:30:42;;;;;;;0.70;0.70;;;;;;;;;;7420688;19;20360;-86
2023/10/14 04:35:58;;;;;;;0.70;0.70;;;;;;;;;;7427199;19;20364;-88
2023/10/14 04:38:37;;;;;;;0.60;0.60;;;;;;;;;;7419620;19;20344;-85
2023/10/14 04:41:12;;;;;;;2.72;0.80;;;;;;;;;;7421486;19;20352;-89
2023/10/14 04:46:19;;;;;;;3.10;1.20;;;;;;;;;;7393342;19;20348;-88
2023/10/14 04:49:35;;;;;;;0.68;0.68;;;;;;;;;;7384921;19;21110;-88
2023/10/14 04:51:45;;;;;;;0.90;0.50;;;;;;;;;;7390441;19;20361;-88
2023/10/14 04:54:19;;;;;;;1.30;1.20;;;;;;;;;;7389036;19;20328;-88
2023/10/14 04:56:46;;;;;;;0.52;0.52;;;;;;;;;;7384980;19;20360;-89
2023/10/14 04:59:19;;;;;;;0.68;0.68;;;;;;;;;;7387145;19;20341;-87
2023/10/14 05:01:48;;;;;;;1.70;1.03;;;;;;;;;;7384174;19;20725;-88
2023/10/14 05:04:19;;;;;;;0.50;0.50;;;;;;;;;;7385325;19;20356;-90
2023/10/14 05:06:48;;;;;;;0.60;0.60;;;;;;;;;;7383055;19;20352;-89
2023/10/14 05:09:30;;;;;;;0.50;0.50;;;;;;;;;;7386760;19;20385;-88
2023/10/14 05:11:58;;;;;;;1.15;0.90;;;;;;;;;;7389838;19;20341;-87
2023/10/14 05:14:34;;;;;;;0.50;0.50;;;;;;;;;;7388362;19;20379;-90
2023/10/14 05:19:47;;;;;;;0.65;0.65;;;;;;;;;;7383201;19;20430;-90
2023/10/14 05:22:24;;;;;;;0.90;0.90;;;;;;;;;;7403857;19;20384;-88
2023/10/14 05:24:54;;;;;;;0.65;0.65;;;;;;;;;;7400943;19;20383;-90
2023/10/14 05:27:22;;;;;;;0.60;0.60;;;;;;;;;;7388486;19;20345;-90
2023/10/14 05:29:52;;;;;;;0.70;0.53;;;;;;;;;;7392645;19;20348;-87
2023/10/14 05:32:30;;;;;;;0.75;0.73;;;;;;;;;;7404142;19;20328;-88
2023/10/14 05:34:59;;;;;;;0.80;0.68;;;;;;;;;;7388778;19;20355;-88
2023/10/14 05:37:26;;;;;;;2.30;0.80;;;;;;;;;;7396662;19;20401;-86
2023/10/14 05:39:55;;;;;;;1.25;0.98;;;;;;;;;;7395361;19;20344;-90
2023/10/14 05:42:24;;;;;;;0.40;0.40;;;;;;;;;;7402613;19;20336;-89
2023/10/14 05:45:01;;;;;;;0.90;0.80;;;;;;;;;;7396147;19;20340;-91
2023/10/14 05:47:28;;;;;;;0.60;0.60;;;;;;;;;;7402595;19;20376;-91
2023/10/14 05:49:56;;;;;;;0.50;0.50;;;;;;;;;;7394583;19;20372;-90
2023/10/14 05:52:24;;;;;;;0.52;0.52;;;;;;;;;;7402389;19;20316;-92
2023/10/14 05:54:51;;;;;;;0.40;0.40;;;;;;;;;;7400156;19;20383;-91
2023/10/14 05:57:20;;;;;;;0.50;0.50;;;;;;;;;;7392155;19;20376;-90
2023/10/14 05:59:48;;;;;;;0.60;0.60;;;;;;;;;;7392844;19;20331;-90
2023/10/14 06:02:15;;;;;;;0.60;0.60;;;;;;;;;;7392356;19;20344;-88
2023/10/14 06:04:42;;;;;;;0.57;0.57;;;;;;;;;;7396885;19;20377;-89
2023/10/14 06:07:11;;;;;;;0.90;0.90;;;;;;;;;;7388019;19;20349;-87
2023/10/14 06:09:39;;;;;;;1.30;1.15;;;;;;;;;;7394403;19;20873;-92
2023/10/14 06:12:12;;;;;;;0.80;0.80;;;;;;;;;;7395572;19;20339;-91
2023/10/14 06:14:42;;;;;;;0.40;0.40;;;;;;;;;;7396595;19;20340;-92
2023/10/14 06:17:11;;;;;;;0.40;0.40;;;;;;;;;;7396585;19;20332;-91
2023/10/14 06:19:42;;;;;;;0.40;0.40;;;;;;;;;;7408332;19;20365;-93
2023/10/14 06:22:13;;;;;;;0.57;0.57;;;;;;;;;;7408427;19;20348;-92
2023/10/14 06:24:42;;;;;;;0.50;0.50;;;;;;;;;;7405928;19;20352;-92
2023/10/14 06:27:20;;;;;;;0.40;0.40;;;;;;;;;;7405205;19;20880;-92
2023/10/14 06:29:50;;;;;;;0.35;0.35;;;;;;;;;;7400347;19;20356;-93
2023/10/14 06:32:18;;;;;;;0.40;0.40;;;;;;;;;;7399484;19;20349;-93
2023/10/14 06:34:57;;;;;;;0.38;0.38;;;;;;;;;;7394580;19;20348;-92
2023/10/14 06:37:28;;;;;;;0.73;0.73;;;;;;;;;;7393716;19;20979;-91
2023/10/14 06:39:56;;;;;;;0.60;0.60;;;;;;;;;;7393223;19;20372;-91
2023/10/14 06:42:26;;;;;;;0.40;0.40;;;;;;;;;;7397816;19;20393;-91
2023/10/14 06:44:54;;;;;;;1.00;0.70;;;;;;;;;;7396263;19;20393;-90
2023/10/14 06:47:22;;;;;;;0.30;0.30;;;;;;;;;;7396519;19;20356;-91
2023/10/14 06:49:49;;;;;;;0.47;0.47;;;;;;;;;;7391962;19;20357;-91
2023/10/14 06:52:18;;;;;;;0.50;0.40;;;;;;;;;;7395061;19;20357;-90
2023/10/14 06:54:46;;;;;;;0.70;0.70;;;;;;;;;;7388456;19;20432;-89
2023/10/14 06:57:14;;;;;;;0.73;0.73;;;;;;;;;;7391653;19;20344;-90
2023/10/14 06:59:41;;;;;;;0.40;0.40;;;;;;;;;;7390334;19;20360;-90
2023/10/14 07:02:10;;;;;;;0.45;0.45;;;;;;;;;;7399977;19;20365;-91
2023/10/14 07:04:37;;;;;;;;;;;;;;;;;;7402357;19;20036;-91
2023/10/14 07:07:11;;;;;;;;;;;;;;;;;;7398114;19;19910;-92
2023/10/14 07:09:44;;;;;;;;;;;;;;;;;;7398360;19;19907;-92
2023/10/14 07:15:44;;;;;;;;;;;;;;;;;;7400835;19;19915;-92
2023/10/14 07:18:13;;;;;;;;;;;;;;;;;;7389705;19;20289;-90
2023/10/14 07:20:41;;;;;;;;;;;;;;;;;;7407026;19;19927;-90
2023/10/14 07:23:08;;;;;;;;;;;;;;;;;;7408497;19;20244;-89
2023/10/14 07:25:36;;;;;;;;;;;;;;;;;;7397128;19;20286;-90
2023/10/14 07:28:06;;;;;;;;;;;;;;;;;;7392577;19;20351;-89
2023/10/14 07:30:34;;;;;;;;;;;;;;;;;;7393121;19;20065;-88
2023/10/14 07:33:01;;;;;;;;;;;;;;;;;;7394458;19;19918;-89
2023/10/14 07:35:31;;;;;;;;;;;;;;;;;;7395253;19;19947;-88
2023/10/14 07:37:58;;;;;;;;;;;;;;;;;;7395094;19;19922;-87
2023/10/14 07:40:27;;;;;;;;;;;;;;;;;;7393186;19;19914;-88
2023/10/14 07:42:54;;;;;;;;;;;;;;;;;;7393531;19;19914;-87
2023/10/14 07:45:23;;;;;;;;;;;;;;;;;;7399222;19;19922;-87
2023/10/14 07:47:49;;;;;;;;;;;;;;;;;;7396952;19;19928;-86
2023/10/14 07:50:16;;;;;;;;;;;;;;;;;;7391880;19;19918;-87
2023/10/14 07:52:43;;;;;;;;;;;;;;;;;;7392032;19;19974;-87
2023/10/14 07:55:15;;;;;;;;;;;;;;;;;;7395541;19;19918;-89
2023/10/14 07:57:42;;;;;;;;;;;;;;;;;;7394102;19;19923;-89
2023/10/14 08:00:12;;;;;;;;;;;;;;;;;;7399089;19;19925;-88
2023/10/14 08:02:39;;;;;;;;;;;;;;;;;;7391022;19;19915;-88
2023/10/14 08:05:06;;;;;;;;;;;;;;;;;;7400476;19;19931;-87
2023/10/14 08:07:40;;;;;;;;;;;;;;;;;;7390196;19;19946;-88
2023/10/14 08:14:07;;;;;;;;;;;;;;;;;;7397856;19;19919;-88
2023/10/14 08:20:43;;;;;;;;;;;;;;;;;;7397502;19;20420;-87
2023/10/14 08:23:25;;;;;;;;;;;;;;;;;;7397657;19;19949;-87
2023/10/14 08:26:13;;;;;;;;;;;;;;;;;;7391497;19;19954;-88
2023/10/14 08:29:12;;;;;;;;;;;;;;;;;;7394222;19;19962;-88
2023/10/14 08:31:58;;;;;;;;;;;;;;;;;;7396295;19;19919;-88
2023/10/14 08:34:38;;;;;;;;;;;;;;;;;;7393460;19;19929;-87
2023/10/14 08:37:04;;;;;;;;;;;;;;;;;;7393611;19;19987;-89
2023/10/14 08:39:31;;;;;;;;;;;;;;;;;;7395367;19;19932;-87
2023/10/14 08:41:58;;;;;;;;;;;;;;;;;;7394185;19;19925;-88
2023/10/14 08:44:25;;;;;;;;;;;;;;;;;;7395424;19;19929;-88
2023/10/14 08:46:52;;;;;;;;;;;;;;;;;;7386335;19;19982;-86
2023/10/14 08:49:23;;;;;;;;;;;;;;;;;;7391141;19;19914;-90
2023/10/14 08:51:50;;;;;;;;;;;;;;;;;;7391301;19;19918;-87
2023/10/14 08:54:24;;;;;;;;;;;;;;;;;;7392174;19;19918;-88
2023/10/14 08:56:51;;;;;;;;;;;;;;;;;;7397753;19;19914;-87
2023/10/14 08:59:27;;;;;;;;;;;;;;;;;;7393281;19;19930;-88
2023/10/14 09:01:56;;;;;;;;;;;;;;;;;;7397639;19;19914;-87
2023/10/14 09:04:27;;;;;;;;;;;;;;;;;;7396572;19;19982;-86
2023/10/14 09:06:59;;;;;;;;;;;;;;;;;;7393318;19;19911;-87
2023/10/14 09:09:47;;;;;;;;;;;;;;;;;;7425226;19;19917;-87
2023/10/14 09:12:28;;;;;;;;;;;;;;;;;;7423916;19;19922;-89
2023/10/14 09:14:55;;;;;;;;;;;;;;;;;;7400015;19;20347;-88
2023/10/14 09:17:23;;;;;;;;;;;;;;;;;;7391894;19;20015;-89
2023/10/14 09:19:50;;;;;;;;;;;;;;;;;;7415333;19;20262;-88
2023/10/14 09:22:27;;;;;;;;;;;;;;;;;;7395663;19;19914;-88
2023/10/14 09:24:58;;;;;;;;;;;;;;;;;;7385238;19;19915;-85
2023/10/14 09:27:26;;;;;;;;;;;;;;;;;;7391795;19;19935;-86
2023/10/14 09:29:56;;;;;;;;;;;;;;;;;;7397841;19;19911;-86
2023/10/14 09:32:24;;;;;;;;;;;;;;;;;;7391822;19;19915;-85
2023/10/14 09:34:55;;;;;;;;;;;;;;;;;;7387983;19;19936;-86
2023/10/14 09:37:23;;;;;;;;;;;;;;;;;;7393000;19;19919;-88
2023/10/14 09:39:57;;;;;;;;;;;;;;;;;;7391978;19;19914;-84
2023/10/14 09:42:26;;;;;;;;;;;;;;;;;;7392569;19;19921;-84
2023/10/14 09:44:54;;;;;;;;;;;;;;;;;;7396343;19;19919;-84
2023/10/14 09:47:22;;;;;;;;;;;;;;;;;;7394011;19;19982;-87
2023/10/14 09:49:50;;;;;;;;;;;;;;;;;;7398452;19;19952;-86
2023/10/14 09:52:16;;;;;;;;;;;;;;;;;;7398628;19;19915;-85
2023/10/14 09:54:49;;;;;;;;;;;;;;;;;;7392472;19;20360;-85
2023/10/14 09:57:16;;;;;;;;;;;;;;;;;;7391232;19;20305;-87
2023/10/14 10:00:12;;;;;;;;;;;;;;;;;;7394823;19;20684;-90
2023/10/14 10:02:46;;;;;;;;;;;;;;;;;;7391668;19;19918;-85
2023/10/14 10:05:16;;;;;;;;;;;;;;;;;;7399757;19;19919;-86
2023/10/14 10:08:04;;;;;;;;;;;;;;;;;;7395945;19;20336;-87
2023/10/14 10:10:31;;;;;;;;;;;;;;;;;;7393040;19;19907;-87
2023/10/14 10:12:58;;;;;;;;;;;;;;;;;;7396601;19;20872;-87
2023/10/14 10:15:25;;;;;;;;;;;;;;;;;;7397629;19;24019;-87
2023/10/14 10:18:16;;;;;;;;;;;;;;;;;;7398528;19;19935;-86
2023/10/14 10:20:58;;;;;;;;;;;;;;;;;;7399857;19;19940;-86
2023/10/14 10:23:33;;;;;;;;;;;;;;;;;;7400091;19;20360;-85
2023/10/14 10:26:00;;;;;;;;;;;;;;;;;;7402125;19;19937;-86
2023/10/14 10:28:26;;;;;;;;;;;;;;;;;;7401114;19;19939;-87
2023/10/14 10:30:54;;;;;;;;;;;;;;;;;;7399886;19;19939;-87
2023/10/14 10:33:24;;;;;;;;;;;;;;;;;;7400860;19;19915;-85
2023/10/14 10:35:55;;;;;;;;;;;;;;;;;;7402916;19;19910;-83
2023/10/14 10:38:22;;;;;;;;;;;;;;;;;;7399372;19;20016;-86
2023/10/14 10:41:07;;;;;;;;;;;;;;;;;;7400931;19;19919;-85
2023/10/14 10:43:38;;;;;;;;;;;;;;;;;;7397211;19;19915;-86
2023/10/14 10:46:04;;;;;;;;;;;;;;;;;;7397167;19;19929;-86
2023/10/14 10:48:40;;;;;;;;;;;;;;;;;;7398890;19;20011;-86
2023/10/14 10:51:08;;;;;;;;;;;;;;;;;;7402165;19;19915;-87
2023/10/14 10:53:37;;;;;;;;;;;;;;;;;;7400303;19;20731;-87
2023/10/14 10:56:04;;;;;;;;;;;;;;;;;;7397228;19;19986;-88
2023/10/14 10:58:31;;;;;;;;;;;;;;;;;;7393070;19;20340;-88
2023/10/14 11:01:04;;;;;;;;;;;;;;;;;;7392681;19;19934;-88
2023/10/14 11:03:31;;;;;;;;;;;;;;;;;;7399462;19;19922;-90
2023/10/14 11:05:58;;;;;;;;;;;;;;;;;;7403522;19;19922;-91
2023/10/14 11:08:25;;;;;;;;;;;;;;;;;;7400099;19;19918;-86
2023/10/14 11:10:52;;;;;;;;;;;;;;;;;;7398926;19;19921;-87
2023/10/14 11:13:19;;;;;;;;;;;;;;;;;;7398538;19;20200;-89
2023/10/14 11:15:48;;;;;;;;;;;;;;;;;;7403906;19;19947;-87
2023/10/14 11:18:15;;;;;;;;;;;;;;;;;;7401502;19;19922;-90
2023/10/14 11:21:00;;;;;;;;;;;;;;;;;;7399014;19;19919;-88
2023/10/14 11:23:28;;;;;;;;;;;;;;;;;;7405078;19;19923;-87
2023/10/14 11:26:04;;;;;;;;;;;;;;;;;;7398368;19;19978;-87
2023/10/14 11:28:30;;;;;;;;;;;;;;;;;;7403917;19;19922;-88
2023/10/14 11:30:58;;;;;;;;;;;;;;;;;;7398509;19;20346;-87
2023/10/14 11:33:26;;;;;;;;;;;;;;;;;;7396498;19;19940;-89
2023/10/14 11:35:53;;;;;;;0.30;0.30;;;;;;;;;;7401349;19;20688;-92
2023/10/14 11:38:20;;;;;;;2.38;2.25;;;;;;;;;;7405958;19;20155;-92
2023/10/14 11:40:48;;;;;;;0.30;0.30;;;;;;;;;;7401894;19;20621;-90
2023/10/14 11:43:17;;;;;;;0.30;0.30;;;;;;;;;;7403277;19;20151;-90
2023/10/14 11:45:45;;;;;;;0.28;0.28;;;;;;;;;;7396804;19;20188;-89
2023/10/14 11:48:33;;;;;;;0.30;0.30;;;;;;;;;;7405812;19;20155;-92
2023/10/14 11:51:02;;;;;;;0.32;0.32;;;;;;;;;;7401832;19;20176;-90
2023/10/14 11:53:31;;;;;;;0.43;0.43;;;;;;;;;;7395983;19;20137;-89
2023/10/14 11:56:00;;;;;;;0.30;0.30;;;;;;;;;;7391647;19;20137;-86
2023/10/14 11:58:28;;;;;;;0.50;0.50;;;;;;;;;;7395046;19;20140;-89
2023/10/14 12:00:56;;;;;;;0.30;0.30;;;;;;;;;;7394266;19;20161;-90
2023/10/14 12:03:26;;;;;;;0.40;0.40;;;;;;;;;;7408164;19;20149;-92
2023/10/14 12:05:58;;;;;;;0.40;0.40;;;;;;;;;;7426497;19;20200;-90
2023/10/14 12:08:38;;;;;;;0.98;0.98;;;;;;;;;;7422388;19;20163;-90
2023/10/14 12:11:08;;;;;;;0.30;0.30;;;;;;;;;;7394646;19;20172;-90
2023/10/14 12:13:36;;;;;;;0.40;0.40;;;;;;;;;;7397956;19;20156;-89
2023/10/14 12:16:15;;;;;;;0.50;0.50;;;;;;;;;;7399535;19;20153;-89
2023/10/14 12:18:45;;;;;;;0.20;0.20;;;;;;;;;;7397207;19;20148;-91
2023/10/14 12:21:16;;;;;;;0.45;0.45;;;;;;;;;;7398608;19;20185;-90
2023/10/14 12:23:46;;;;;;;0.40;0.40;;;;;;;;;;7394612;19;20581;-92
2023/10/14 12:26:13;;;;;;;0.73;0.73;;;;;;;;;;7392411;19;20495;-90
2023/10/14 12:29:07;;;;;;;0.30;0.30;;;;;;;;;;7397433;19;20148;-91
2023/10/14 12:31:43;;;;;;;0.40;0.40;;;;;;;;;;7392606;19;20224;-90
2023/10/14 12:34:11;;;;;;;0.20;0.20;;;;;;;;;;7390169;19;20155;-92
2023/10/14 12:36:40;;;;;;;0.30;0.30;;;;;;;;;;7392200;19;20137;-89
2023/10/14 12:39:42;;;;;;;0.40;0.40;;;;;;;;;;7393705;19;20140;-90
2023/10/14 12:42:02;;;;;;;;;;;;;;;;;;7386790;19;20041;-88
2023/10/14 12:44:29;;;;;;;0.30;0.30;;;;;;;;;;7392056;19;20179;-87
2023/10/14 12:47:05;;;;;;;0.50;0.50;;;;;;;;;;7389132;19;20361;-90
2023/10/14 12:49:36;;;;;;;1.30;0.80;;;;;;;;;;7386031;19;20344;-92
2023/10/14 12:52:08;;;;;;;0.30;0.30;;;;;;;;;;7386969;19;20220;-87
2023/10/14 12:54:35;;;;;;;0.45;0.45;;;;;;;;;;7390597;19;20836;-89
2023/10/14 12:57:04;;;;;;;0.65;0.65;;;;;;;;;;7391126;19;20364;-89
2023/10/14 12:59:32;;;;;;;0.57;0.50;;;;;;;;;;7387003;19;20352;-89
2023/10/14 13:01:58;;;;;;;0.80;0.70;;;;;;;;;;7393560;19;20352;-88
2023/10/14 13:04:27;;;;;;;0.40;0.40;;;;;;;;;;7396628;19;20343;-87
2023/10/14 13:06:54;;;;;;;0.45;0.45;;;;;;;;;;7390303;19;20925;-90
2023/10/14 13:09:26;;;;;;;0.70;0.70;;;;;;;;;;7390947;19;20349;-85
2023/10/14 13:11:56;;;;;;;0.40;0.40;;;;;;;;;;7388874;19;20732;-89
2023/10/14 13:14:26;;;;;;;0.80;0.60;;;;;;;;;;7390147;19;20332;-88
2023/10/14 13:16:56;;;;;;;0.40;0.40;;;;;;;;;;7385093;19;20333;-92
2023/10/14 13:19:23;;;;;;;0.70;0.50;;;;;;;;;;7379689;19;20359;-89
2023/10/14 13:21:53;;;;;;;0.60;0.60;;;;;;;;;;7380692;19;20349;-87
2023/10/14 13:24:23;;;;;;;0.33;0.33;;;;;;;;;;7386958;19;20903;-87
2023/10/14 13:26:50;;;;;;;0.47;0.47;;;;;;;;;;7389095;19;20876;-87
2023/10/14 13:29:16;;;;;;;0.40;0.40;;;;;;;;;;7393993;19;20904;-89
2023/10/14 13:31:43;;;;;;;0.30;0.30;;;;;;;;;;7393787;19;20348;-88
2023/10/14 13:34:10;;;;;;;0.40;0.40;;;;;;;;;;7410793;19;20893;-88
2023/10/14 13:36:37;;;;;;;0.25;0.25;;;;;;;;;;7414095;19;20745;-90
2023/10/14 13:39:20;;;;;;;;;;;;;;;;;;7397861;19;20630;-87
2023/10/14 13:41:48;;;;;;;;;;;;;;;;;;7396645;19;19928;-86
2023/10/14 13:44:15;;;;;;;;;;;;;;;;;;7395271;19;19944;-87
2023/10/14 13:46:42;;;;;;;;;;;;;;;;;;7398014;19;19915;-88
2023/10/14 13:49:09;;;;;;;0.30;0.30;;;;;;;;;;7409366;19;20129;-88
2023/10/14 13:51:36;;;;;;;0.30;0.30;;;;;;;;;;7407152;19;20728;-85
2023/10/14 13:54:03;;;;;;;0.30;0.30;;;;;;;;;;7401688;19;20341;-85
2023/10/14 13:56:31;;;;;;;0.30;0.30;;;;;;;;;;7401543;19;20404;-87
2023/10/14 13:58:57;;;;;;;0.30;0.30;;;;;;;;;;7403905;19;20356;-85
2023/10/14 14:01:28;;;;;;;0.20;0.20;;;;;;;;;;7403186;19;20388;-86
2023/10/14 14:03:58;;;;;;;0.60;0.50;;;;;;;;;;7406566;19;20407;-85
2023/10/14 14:06:28;;;;;;;0.30;0.30;;;;;;;;;;7400861;19;20145;-86
2023/10/14 14:08:57;;;;;;;0.30;0.30;;;;;;;;;;7404945;19;20162;-86
2023/10/14 14:11:23;;;;;;;0.30;0.30;;;;;;;;;;7398733;19;20515;-88
2023/10/14 14:13:51;;;;;;;0.30;0.30;;;;;;;;;;7407241;19;20147;-86
2023/10/14 14:16:19;;;;;;;0.20;0.20;;;;;;;;;;7406567;19;20562;-86
2023/10/14 14:18:49;;;;;;;0.30;0.30;;;;;;;;;;7406537;19;20460;-83
2023/10/14 14:21:17;;;;;;;0.30;0.30;;;;;;;;;;7403047;19;20173;-83
2023/10/14 14:23:44;;;;;;;0.20;0.20;;;;;;;;;;7397371;19;20753;-84
2023/10/14 14:26:18;;;;;;;0.30;0.30;;;;;;;;;;7400953;19;20141;-83
2023/10/14 14:28:46;;;;;;;0.30;0.30;;;;;;;;;;7399482;19;20161;-86
2023/10/14 14:31:14;;;;;;;0.30;0.30;;;;;;;;;;7398886;19;20175;-85
2023/10/14 14:33:45;;;;;;;0.30;0.30;;;;;;;;;;7403474;19;20153;-84
2023/10/14 14:36:12;;;;;;;0.30;0.30;;;;;;;;;;7400204;19;22160;-89
2023/10/14 14:38:40;;;;;;;0.30;0.30;;;;;;;;;;7396558;19;20141;-87
2023/10/14 14:41:07;;;;;;;0.30;0.30;;;;;;;;;;7397517;19;20177;-88
2023/10/14 14:43:38;;;;;;;0.30;0.30;;;;;;;;;;7394837;19;20140;-86
2023/10/14 14:46:08;;;;;;;0.30;0.30;;;;;;;;;;7387532;19;20125;-84
2023/10/14 14:48:35;;;;;;;0.30;0.30;;;;;;;;;;7390465;19;20141;-86
2023/10/14 14:51:09;;;;;;;0.47;0.45;;;;;;;;;;7391034;19;20183;-88
2023/10/14 14:53:36;;;;;;;0.30;0.30;;;;;;;;;;7391620;19;20129;-88
2023/10/14 14:56:14;;;;;;;0.30;0.30;;;;;;;;;;7415336;19;20133;-90
2023/10/14 14:58:41;;;;;;;0.55;0.55;;;;;;;;;;7427826;19;20141;-90
2023/10/14 15:01:24;;;;;;;0.20;0.20;;;;;;;;;;7417091;19;20161;-88
2023/10/14 15:03:52;;;;;;;0.30;0.30;;;;;;;;;;7393365;19;20141;-87
2023/10/14 15:06:23;;;;;;;0.30;0.30;;;;;;;;;;7388319;19;20133;-87
2023/10/14 15:08:51;;;;;;;0.20;0.20;;;;;;;;;;7392498;19;20152;-89
2023/10/14 15:11:19;;;;;;;0.30;0.30;;;;;;;;;;7385056;19;20156;-90
2023/10/14 15:13:46;;;;;;;0.30;0.30;;;;;;;;;;7393750;19;20152;-92
2023/10/14 15:16:13;;;;;;;0.30;0.30;;;;;;;;;;7382618;19;20744;-87
2023/10/14 15:18:40;;;;;;;0.30;0.30;;;;;;;;;;7379979;19;20148;-89
2023/10/14 15:21:07;;;;;;;0.30;0.30;;;;;;;;;;7382783;19;20920;-91
2023/10/14 15:23:35;;;;;;;0.30;0.30;;;;;;;;;;7389954;19;20610;-90
2023/10/14 15:26:07;;;;;;;0.30;0.30;;;;;;;;;;7386223;19;20141;-89
2023/10/14 15:28:35;;;;;;;0.70;0.70;;;;;;;;;;7392581;19;20144;-88
2023/10/14 15:31:07;;;;;;;0.30;0.30;;;;;;;;;;7390961;19;20172;-91
2023/10/14 15:33:34;;;;;;;0.30;0.30;;;;;;;;;;7383871;19;20147;-91
2023/10/14 15:36:05;;;;;;;0.22;0.22;;;;;;;;;;7388310;19;20503;-92
2023/10/14 15:38:32;;;;;;;2.10;0.70;;;;;;;;;;7394945;19;20432;-92
2023/10/14 15:41:01;;;;;;;0.20;0.20;;;;;;;;;;7386712;19;20735;-93
2023/10/14 15:43:28;;;;;;;0.37;0.37;;;;;;;;;;7383278;19;20373;-90
2023/10/14 15:46:01;;;;;;;0.37;0.37;;;;;;;;;;7385934;19;20381;-90
2023/10/14 15:48:33;;;;;;;0.20;0.20;;;;;;;;;;7389270;19;20348;-86
2023/10/14 15:51:00;;;;;;;0.30;0.30;;;;;;;;;;7388599;19;20337;-90
2023/10/14 15:53:28;;;;;;;0.30;0.30;;;;;;;;;;7389419;19;20356;-89
2023/10/14 15:55:56;;;;;;;0.30;0.30;;;;;;;;;;7391679;19;20137;-90
2023/10/14 15:58:23;;;;;;;0.30;0.30;;;;;;;;;;7383229;19;21068;-90
2023/10/14 16:01:07;;;;;;;0.30;0.30;;;;;;;;;;7386996;19;20156;-88
2023/10/14 16:03:34;;;;;;;0.30;0.30;;;;;;;;;;7388427;19;20613;-87
2023/10/14 16:06:01;;;;;;;0.20;0.20;;;;;;;;;;7390811;19;20629;-92
2023/10/14 16:08:28;;;;;;;0.30;0.30;;;;;;;;;;7388499;19;20677;-88
2023/10/14 16:10:55;;;;;;;0.20;0.20;;;;;;;;;;7390035;19;20499;-90
2023/10/14 16:13:23;;;;;;;0.20;0.20;;;;;;;;;;7396608;19;20166;-91
2023/10/14 16:15:49;;;;;;;0.20;0.20;;;;;;;;;;7383946;19;20141;-90
2023/10/14 16:18:16;;;;;;;0.20;0.20;;;;;;;;;;7387726;19;20176;-90
2023/10/14 16:20:43;;;;;;;0.30;0.30;;;;;;;;;;7392264;19;20163;-90
2023/10/14 16:23:11;;;;;;;0.30;0.30;;;;;;;;;;7391526;19;20152;-92
2023/10/14 16:25:40;;;;;;;0.20;0.20;;;;;;;;;;7390013;19;20132;-91
2023/10/14 16:28:08;;;;;;;0.30;0.30;;;;;;;;;;7388891;19;20137;-90